Time;durP1;ratioP1;P1;durP2;ratioP2;P2;SDS_P1;SDS_P2;PMS_P1;PMS_P2;Temp;Humidity;BMP_temperature;BMP_pressure;BME280_temperature;BME280_humidity;BME280_pressure;Samples;Min_cycle;Max_cycle;Signal;HPM_P1;HPM_P2
2021/12/03 00:01:25;;;;;;;6.47;1.90;;;0.90;99.90;;;;;;6215485;23;20019;-79
2021/12/03 00:03:51;;;;;;;7.85;1.90;;;0.90;99.90;;;;;;6214788;23;20051;-78
2021/12/03 00:06:17;;;;;;;5.75;1.90;;;0.90;99.90;;;;;;6214124;23;20093;-81
2021/12/03 00:08:43;;;;;;;7.40;1.90;;;0.90;99.90;;;;;;6214275;23;20019;-79
2021/12/03 00:11:11;;;;;;;5.68;2.17;;;0.90;99.90;;;;;;6214638;23;20336;-79
2021/12/03 00:13:37;;;;;;;7.90;1.67;;;0.90;99.90;;;;;;6215765;23;20044;-79
2021/12/03 00:16:04;;;;;;;11.52;2.17;;;0.90;99.90;;;;;;6222860;23;20082;-80
2021/12/03 00:18:30;;;;;;;8.38;1.90;;;1.00;99.90;;;;;;6241016;23;20020;-78
2021/12/03 00:20:57;;;;;;;8.15;2.33;;;1.00;99.90;;;;;;6215950;23;20420;-78
2021/12/03 00:23:28;;;;;;;8.63;2.10;;;1.00;99.90;;;;;;6213750;23;20039;-78
2021/12/03 00:25:54;;;;;;;4.60;1.75;;;1.00;99.90;;;;;;6217395;23;20102;-77
2021/12/03 00:28:20;;;;;;;3.95;1.83;;;1.00;99.90;;;;;;6214126;23;20015;-78
2021/12/03 00:30:46;;;;;;;9.20;2.03;;;0.90;99.90;;;;;;6244413;23;20075;-78
2021/12/03 00:33:12;;;;;;;9.02;1.90;;;0.90;99.90;;;;;;6214124;23;20085;-79
2021/12/03 00:35:38;;;;;;;7.38;1.95;;;0.90;99.90;;;;;;6239631;23;20038;-78
2021/12/03 00:38:04;;;;;;;4.25;1.77;;;0.90;99.90;;;;;;6241732;23;20440;-78
2021/12/03 00:40:35;;;;;;;13.27;2.63;;;0.90;99.90;;;;;;6241287;23;20020;-78
2021/12/03 00:43:02;;;;;;;7.45;2.20;;;0.90;99.90;;;;;;6240929;23;20039;-79
2021/12/03 00:45:30;;;;;;;7.88;1.80;;;0.90;99.90;;;;;;6239900;23;20016;-79
2021/12/03 00:47:55;;;;;;;10.73;1.85;;;0.90;99.90;;;;;;6217580;23;20013;-78
2021/12/03 00:50:22;;;;;;;10.98;2.17;;;0.90;99.90;;;;;;6238581;23;20109;-77
2021/12/03 00:52:49;;;;;;;7.03;1.70;;;0.90;99.90;;;;;;6240002;23;20051;-78
2021/12/03 00:55:16;;;;;;;6.35;1.75;;;0.90;99.90;;;;;;6216488;23;20012;-80
2021/12/03 00:57:42;;;;;;;10.70;2.00;;;0.90;99.90;;;;;;6217199;23;20019;-78
2021/12/03 01:00:12;;;;;;;9.93;2.25;;;0.90;99.90;;;;;;6241241;23;20038;-76
2021/12/03 01:02:38;;;;;;;13.13;2.20;;;0.90;99.90;;;;;;6241077;23;20016;-78
2021/12/03 01:05:05;;;;;;;8.25;1.88;;;1.10;99.90;;;;;;6241188;22;20016;-80
2021/12/03 01:07:31;;;;;;;9.95;1.92;;;0.90;99.90;;;;;;6214667;23;20072;-79
2021/12/03 01:09:56;;;;;;;4.88;1.85;;;0.90;99.90;;;;;;6240660;23;20127;-78
2021/12/03 01:12:22;;;;;;;5.63;1.95;;;0.90;99.90;;;;;;6241352;23;20344;-78
2021/12/03 01:14:48;;;;;;;5.20;1.83;;;0.90;99.90;;;;;;6238608;23;20012;-77
2021/12/03 01:17:14;;;;;;;9.60;2.15;;;0.90;99.90;;;;;;6240430;23;20039;-79
2021/12/03 01:19:40;;;;;;;10.27;2.00;;;0.90;99.90;;;;;;6237354;23;20023;-77
2021/12/03 01:22:06;;;;;;;4.82;1.75;;;0.90;99.90;;;;;;6212640;23;20012;-79
2021/12/03 01:24:31;;;;;;;10.10;2.05;;;0.90;99.90;;;;;;6214310;23;20111;-80
2021/12/03 01:26:57;;;;;;;6.53;2.28;;;0.90;99.90;;;;;;6239345;23;20062;-78
2021/12/03 01:29:24;;;;;;;8.18;2.08;;;0.80;99.90;;;;;;6213413;23;20313;-77
2021/12/03 01:31:51;;;;;;;8.52;1.85;;;0.90;99.90;;;;;;6238813;23;20090;-78
2021/12/03 01:34:17;;;;;;;6.07;1.88;;;1.30;99.90;;;;;;6213122;23;20099;-79
2021/12/03 01:36:43;;;;;;;5.80;2.33;;;0.80;99.90;;;;;;6235748;23;20062;-79
2021/12/03 01:39:09;;;;;;;5.03;1.95;;;0.80;99.90;;;;;;6238855;23;20383;-78
2021/12/03 01:41:34;;;;;;;5.25;1.70;;;0.90;99.90;;;;;;6214133;23;20081;-80
2021/12/03 01:44:02;;;;;;;7.70;2.10;;;0.90;99.90;;;;;;6239032;23;20020;-78
2021/12/03 01:46:29;;;;;;;8.35;2.20;;;0.90;99.90;;;;;;6236417;23;20035;-78
2021/12/03 01:48:55;;;;;;;14.20;2.20;;;1.00;99.90;;;;;;6241445;23;20034;-78
2021/12/03 01:51:21;;;;;;;7.32;1.83;;;0.90;99.90;;;;;;6213606;23;20031;-79
2021/12/03 01:53:48;;;;;;;7.30;2.13;;;1.00;99.90;;;;;;6233683;23;20336;-77
2021/12/03 01:56:16;;;;;;;4.60;1.60;;;0.90;99.90;;;;;;6236873;23;20012;-78
2021/12/03 01:58:44;;;;;;;4.70;1.50;;;1.30;99.90;;;;;;6236208;23;20575;-79
2021/12/03 02:01:12;;;;;;;10.20;1.92;;;1.00;99.90;;;;;;6236929;23;20070;-78
2021/12/03 02:03:41;;;;;;;7.20;1.50;;;1.00;99.90;;;;;;6235897;23;20379;-78
2021/12/03 02:06:08;;;;;;;6.97;1.60;;;1.00;99.90;;;;;;6238356;22;20048;-77
2021/12/03 02:08:34;;;;;;;8.63;1.42;;;1.00;99.90;;;;;;6239179;23;20409;-77
2021/12/03 02:11:01;;;;;;;6.78;1.70;;;1.00;99.90;;;;;;6239808;23;20008;-79
2021/12/03 02:13:27;;;;;;;6.07;1.73;;;1.10;99.90;;;;;;6239921;23;20012;-76
2021/12/03 02:15:52;;;;;;;7.47;1.77;;;1.10;99.90;;;;;;6218376;22;20316;-79
2021/12/03 02:18:18;;;;;;;6.78;1.90;;;1.10;99.90;;;;;;6217964;22;20047;-77
2021/12/03 02:20:48;;;;;;;6.00;1.75;;;1.10;99.90;;;;;;6273755;22;20074;-79
2021/12/03 02:23:15;;;;;;;11.10;1.83;;;1.10;99.90;;;;;;6242258;22;20020;-77
2021/12/03 02:25:41;;;;;;;6.30;1.67;;;1.10;99.90;;;;;;6265906;22;20019;-80
2021/12/03 02:28:07;;;;;;;5.85;1.70;;;1.40;99.90;;;;;;6243651;22;20016;-79
2021/12/03 02:30:33;;;;;;;3.20;1.75;;;1.10;99.90;;;;;;6245375;22;20091;-79
2021/12/03 02:32:59;;;;;;;11.93;1.73;;;1.10;99.90;;;;;;6245268;22;20087;-80
2021/12/03 02:35:25;;;;;;;8.48;1.83;;;1.20;99.90;;;;;;6245917;22;20007;-80
2021/12/03 02:37:51;;;;;;;7.15;1.70;;;1.10;99.90;;;;;;6242245;22;20027;-78
2021/12/03 02:40:18;;;;;;;10.32;2.22;;;1.20;99.90;;;;;;6271377;22;20023;-79
2021/12/03 02:42:45;;;;;;;9.02;2.17;;;1.20;99.90;;;;;;6244090;22;20024;-78
2021/12/03 02:45:12;;;;;;;6.20;1.70;;;1.20;99.90;;;;;;6270822;22;20149;-80
2021/12/03 02:47:38;;;;;;;7.07;1.83;;;1.20;99.90;;;;;;6247153;22;20025;-78
2021/12/03 02:50:06;;;;;;;5.88;2.08;;;1.30;99.90;;;;;;6249882;22;20075;-80
2021/12/03 02:52:32;;;;;;;5.93;2.00;;;1.20;99.90;;;;;;6248960;22;20016;-79
2021/12/03 02:54:57;;;;;;;6.00;2.13;;;1.70;99.90;;;;;;6249788;22;20313;-79
2021/12/03 02:57:23;;;;;;;6.43;1.70;;;1.20;99.90;;;;;;6250146;22;20418;-78
2021/12/03 03:03:30;;;;;;;6.75;2.05;;;1.20;99.90;;;;;;6277469;22;20081;-79
2021/12/03 03:05:59;;;;;;;10.15;2.78;;;1.20;99.90;;;;;;6244427;22;20016;-79
2021/12/03 03:08:26;;;;;;;13.32;3.17;;;1.20;99.90;;;;;;6242942;22;20022;-80
2021/12/03 03:10:53;;;;;;;12.32;3.40;;;1.30;99.90;;;;;;6269320;22;20004;-81
2021/12/03 03:13:19;;;;;;;11.50;3.55;;;1.30;99.90;;;;;;6218086;22;20012;-78
2021/12/03 03:15:45;;;;;;;10.50;4.10;;;1.20;99.90;;;;;;6244646;22;20019;-78
2021/12/03 03:18:14;;;;;;;9.25;4.35;;;1.20;99.90;;;;;;6244665;22;20030;-78
2021/12/03 03:20:42;;;;;;;10.70;4.70;;;1.20;99.90;;;;;;6243853;22;20526;-78
2021/12/03 03:23:08;;;;;;;11.85;5.38;;;1.20;99.90;;;;;;6218912;22;20087;-79
2021/12/03 03:25:34;;;;;;;10.50;5.55;;;1.20;99.90;;;;;;6244530;22;20012;-79
2021/12/03 03:28:00;;;;;;;11.45;6.15;;;1.30;99.90;;;;;;6217669;22;20092;-78
2021/12/03 03:30:26;;;;;;;26.15;7.57;;;1.30;99.90;;;;;;6269965;22;20027;-77
2021/12/03 03:32:52;;;;;;;20.00;7.40;;;1.30;99.90;;;;;;6243663;22;20608;-78
2021/12/03 03:35:18;;;;;;;17.27;8.02;;;1.30;99.90;;;;;;6269032;22;20012;-78
2021/12/03 03:37:44;;;;;;;20.30;10.07;;;1.40;99.90;;;;;;6216323;22;20118;-78
2021/12/03 03:40:10;;;;;;;19.90;10.27;;;1.30;99.90;;;;;;6217735;22;20527;-78
2021/12/03 03:42:37;;;;;;;21.67;12.13;;;1.30;99.90;;;;;;6219623;22;20012;-78
2021/12/03 03:45:07;;;;;;;25.35;12.98;;;1.40;99.90;;;;;;6245048;22;20320;-78
2021/12/03 03:47:33;;;;;;;28.70;14.60;;;1.40;99.90;;;;;;6245606;22;20424;-78
2021/12/03 03:49:59;;;;;;;26.75;14.90;;;1.40;99.90;;;;;;6243270;22;20077;-79
2021/12/03 03:52:28;;;;;;;25.13;15.57;;;1.40;99.90;;;;;;6242859;22;20194;-77
2021/12/03 03:54:53;;;;;;;28.45;15.73;;;1.40;99.90;;;;;;6244455;22;20007;-77
2021/12/03 03:57:19;;;;;;;26.40;16.45;;;1.40;99.90;;;;;;6218990;22;20065;-78
2021/12/03 03:59:45;;;;;;;33.53;17.55;;;1.50;99.90;;;;;;6244119;22;20023;-78
2021/12/03 04:02:10;;;;;;;34.28;18.48;;;2.00;99.90;;;;;;6241794;22;20118;-80
2021/12/03 04:04:36;;;;;;;41.10;20.52;;;1.40;99.90;;;;;;6219232;22;20082;-78
2021/12/03 04:07:02;;;;;;;34.42;20.75;;;1.40;99.90;;;;;;6269752;22;20038;-79
2021/12/03 04:09:28;;;;;;;36.70;20.63;;;1.40;99.90;;;;;;6243038;22;20458;-78
2021/12/03 04:11:53;;;;;;;38.05;21.80;;;1.40;99.90;;;;;;6242857;22;20316;-79
2021/12/03 04:14:19;;;;;;;37.47;21.45;;;1.40;99.90;;;;;;6219042;22;20491;-79
2021/12/03 04:16:45;;;;;;;40.42;21.60;;;1.40;99.90;;;;;;6243196;22;20384;-77
2021/12/03 04:19:10;;;;;;;35.40;21.15;;;1.40;99.90;;;;;;6269446;22;20444;-79
2021/12/03 04:21:37;;;;;;;40.10;22.50;;;1.40;99.90;;;;;;6243535;22;20023;-78
2021/12/03 04:24:03;;;;;;;36.17;22.77;;;1.40;99.90;;;;;;6243658;22;20534;-78
2021/12/03 04:26:28;;;;;;;33.15;21.95;;;1.40;99.90;;;;;;6194575;22;20371;-78
2021/12/03 04:28:54;;;;;;;28.65;19.88;;;1.40;99.90;;;;;;6245102;22;20026;-79
2021/12/03 04:31:20;;;;;;;29.92;19.40;;;1.40;99.90;;;;;;6246994;22;20011;-79
2021/12/03 04:33:46;;;;;;;30.95;20.60;;;1.40;99.90;;;;;;6220702;22;20260;-78
2021/12/03 04:36:11;;;;;;;29.33;19.77;;;1.40;99.90;;;;;;6247245;22;20062;-79
2021/12/03 04:38:37;;;;;;;33.03;20.60;;;1.40;99.90;;;;;;6246317;22;20019;-78
2021/12/03 04:41:03;;;;;;;32.78;20.65;;;1.40;99.90;;;;;;6246920;22;20019;-78
2021/12/03 04:43:30;;;;;;;31.77;19.83;;;1.40;99.90;;;;;;6246345;22;20046;-78
2021/12/03 04:45:55;;;;;;;28.92;19.00;;;1.40;99.90;;;;;;6247001;22;20020;-79
2021/12/03 04:48:21;;;;;;;29.52;19.27;;;1.40;99.90;;;;;;6246660;22;20012;-79
2021/12/03 04:50:47;;;;;;;35.85;18.95;;;1.40;99.90;;;;;;6221459;22;20011;-78
2021/12/03 04:53:14;;;;;;;28.77;18.63;;;1.40;99.90;;;;;;6245879;22;20015;-78
2021/12/03 04:55:40;;;;;;;24.23;17.10;;;1.40;99.90;;;;;;6246584;22;20083;-78
2021/12/03 04:58:06;;;;;;;27.65;19.15;;;1.40;99.90;;;;;;6246945;22;20019;-77
2021/12/03 05:00:37;;;;;;;27.02;19.15;;;1.40;99.90;;;;;;6248810;22;20015;-78
2021/12/03 05:03:03;;;;;;;31.13;18.10;;;1.40;99.90;;;;;;6247689;22;20420;-78
2021/12/03 05:05:33;;;;;;;35.35;17.48;;;1.40;99.90;;;;;;6246475;22;20027;-77
2021/12/03 05:08:07;;;;;;;29.67;17.30;;;1.40;99.90;;;;;;6220568;22;20008;-79
2021/12/03 05:10:35;;;;;;;30.45;19.73;;;1.40;99.90;;;;;;6246445;22;20431;-77
2021/12/03 05:13:05;;;;;;;25.40;16.67;;;1.40;99.90;;;;;;6246792;22;20043;-78
2021/12/03 05:15:32;;;;;;;30.23;18.27;;;1.40;99.90;;;;;;6246633;22;20020;-78
2021/12/03 05:17:58;;;;;;;28.02;18.73;;;1.40;99.90;;;;;;6246197;22;20024;-78
2021/12/03 05:20:23;;;;;;;35.38;18.83;;;1.30;99.90;;;;;;6245401;22;20026;-78
2021/12/03 05:22:49;;;;;;;35.53;18.20;;;1.30;99.90;;;;;;6243643;22;20019;-78
2021/12/03 05:25:15;;;;;;;26.23;17.58;;;1.30;99.90;;;;;;6244663;22;20096;-77
2021/12/03 05:27:41;;;;;;;24.45;17.58;;;1.20;99.90;;;;;;6245406;22;20007;-79
2021/12/03 05:30:08;;;;;;;27.52;17.08;;;1.30;99.90;;;;;;6272531;22;20062;-78
2021/12/03 05:32:34;;;;;;;27.48;17.83;;;1.30;99.90;;;;;;6244239;22;20027;-79
2021/12/03 05:34:59;;;;;;;29.27;18.13;;;1.30;99.90;;;;;;6245814;22;20008;-79
2021/12/03 05:37:25;;;;;;;24.75;17.70;;;1.30;99.90;;;;;;6243325;22;20069;-77
2021/12/03 05:39:51;;;;;;;27.83;17.98;;;1.30;99.90;;;;;;6218763;22;20015;-77
2021/12/03 05:42:16;;;;;;;25.55;17.85;;;1.30;99.90;;;;;;6244432;22;20774;-78
2021/12/03 05:44:42;;;;;;;26.67;17.48;;;1.40;99.90;;;;;;6245543;22;20019;-77
2021/12/03 05:47:08;;;;;;;27.65;16.15;;;1.30;99.90;;;;;;6244004;22;20086;-79
2021/12/03 05:49:34;;;;;;;28.90;16.83;;;1.30;99.90;;;;;;6244781;22;20164;-78
2021/12/03 05:51:59;;;;;;;28.23;17.67;;;1.30;99.90;;;;;;6217422;22;20019;-78
2021/12/03 05:54:27;;;;;;;24.02;15.73;;;1.30;99.90;;;;;;6243988;22;20012;-78
2021/12/03 05:56:52;;;;;;;25.15;14.98;;;1.30;99.90;;;;;;6244233;22;20020;-79
2021/12/03 05:59:18;;;;;;;22.88;15.77;;;1.40;99.90;;;;;;6219841;22;20042;-77
2021/12/03 06:01:44;;;;;;;26.80;16.13;;;1.40;99.90;;;;;;6244700;22;20023;-77
2021/12/03 06:04:10;;;;;;;24.98;16.30;;;1.40;99.90;;;;;;6245215;22;20011;-79
2021/12/03 06:06:35;;;;;;;27.65;17.27;;;1.40;99.90;;;;;;6243922;22;20084;-79
2021/12/03 06:09:01;;;;;;;27.90;16.13;;;1.40;99.90;;;;;;6242551;22;20083;-78
2021/12/03 06:11:27;;;;;;;23.35;16.33;;;1.40;99.90;;;;;;6244325;22;20427;-79
2021/12/03 06:13:53;;;;;;;28.75;17.25;;;1.30;99.90;;;;;;6272489;22;20043;-77
2021/12/03 06:16:18;;;;;;;29.83;17.33;;;1.40;99.90;;;;;;6244588;22;20090;-79
2021/12/03 06:18:44;;;;;;;29.25;17.10;;;1.40;99.90;;;;;;6243320;22;20626;-79
2021/12/03 06:21:12;;;;;;;28.63;16.60;;;1.30;99.90;;;;;;6245126;22;20054;-78
2021/12/03 06:23:39;;;;;;;24.38;17.08;;;1.40;99.90;;;;;;6243901;22;20012;-79
2021/12/03 06:26:06;;;;;;;26.15;16.98;;;1.30;99.90;;;;;;6245402;22;20007;-77
2021/12/03 06:28:37;;;;;;;27.10;18.30;;;1.40;99.90;;;;;;6245307;22;20106;-77
2021/12/03 06:31:03;;;;;;;30.02;17.50;;;1.40;99.90;;;;;;6243459;22;20064;-79
2021/12/03 06:33:29;;;;;;;26.67;16.60;;;1.50;99.90;;;;;;6245156;22;20008;-77
2021/12/03 06:35:59;;;;;;;29.80;17.55;;;1.50;99.90;;;;;;6244186;22;20385;-85
2021/12/03 06:38:25;;;;;;;24.08;16.38;;;1.60;99.90;;;;;;6270206;22;20012;-79
2021/12/03 06:40:52;;;;;;;24.08;16.10;;;1.70;99.90;;;;;;6243407;22;20039;-78
2021/12/03 06:43:18;;;;;;;28.83;17.00;;;1.70;99.90;;;;;;6243890;22;20043;-75
2021/12/03 06:45:45;;;;;;;22.48;14.75;;;1.80;99.90;;;;;;6217308;22;20016;-79
2021/12/03 06:48:11;;;;;;;29.30;15.88;;;1.80;99.90;;;;;;6242437;22;20016;-78
2021/12/03 06:50:37;;;;;;;25.73;15.52;;;1.80;99.90;;;;;;6242129;22;20038;-76
2021/12/03 06:53:14;;;;;;;29.20;15.77;;;1.90;99.90;;;;;;6239200;22;20051;-76
2021/12/03 06:55:48;;;;;;;32.80;16.25;;;1.90;99.90;;;;;;6240786;22;20317;-77
2021/12/03 06:58:15;;;;;;;30.70;15.02;;;1.90;99.90;;;;;;6240125;22;20073;-78
2021/12/03 07:00:41;;;;;;;25.10;15.45;;;2.00;99.90;;;;;;6241632;22;20019;-80
2021/12/03 07:03:07;;;;;;;27.73;14.45;;;2.00;99.90;;;;;;6267919;22;20015;-79
2021/12/03 07:05:32;;;;;;;31.83;14.77;;;2.00;99.90;;;;;;6216004;22;20042;-77
2021/12/03 07:07:58;;;;;;;27.10;14.80;;;1.90;99.90;;;;;;6240483;22;20015;-79
2021/12/03 07:10:24;;;;;;;28.08;14.77;;;1.90;99.90;;;;;;6240534;22;20012;-78
2021/12/03 07:12:49;;;;;;;25.83;13.63;;;1.90;99.90;;;;;;6241380;22;20069;-78
2021/12/03 07:15:16;;;;;;;20.92;13.52;;;2.10;99.90;;;;;;6263991;22;20011;-77
2021/12/03 07:17:42;;;;;;;30.48;13.18;;;2.00;99.90;;;;;;6260945;22;20016;-78
2021/12/03 07:20:09;;;;;;;27.15;11.73;;;2.00;99.90;;;;;;6264261;22;20462;-76
2021/12/03 07:22:35;;;;;;;22.67;12.90;;;2.00;99.90;;;;;;6264286;22;20409;-76
2021/12/03 07:25:02;;;;;;;26.00;11.85;;;2.00;99.90;;;;;;6266659;22;20106;-77
2021/12/03 07:27:27;;;;;;;21.75;11.35;;;2.00;99.90;;;;;;6239626;22;20039;-77
2021/12/03 07:29:53;;;;;;;21.17;12.02;;;2.00;99.90;;;;;;6267061;22;20020;-78
2021/12/03 07:32:21;;;;;;;17.45;9.98;;;2.00;99.90;;;;;;6244748;22;20007;-77
2021/12/03 07:34:47;;;;;;;16.65;10.52;;;2.00;99.90;;;;;;6271004;22;20012;-81
2021/12/03 07:37:14;;;;;;;19.27;9.63;;;2.10;99.90;;;;;;6244316;22;20277;-81
2021/12/03 07:39:40;;;;;;;21.67;9.60;;;2.10;99.90;;;;;;6219914;22;20440;-78
2021/12/03 07:42:07;;;;;;;17.08;9.40;;;2.10;99.90;;;;;;6270919;22;20042;-78
2021/12/03 07:44:34;;;;;;;20.83;8.57;;;2.10;99.90;;;;;;6221849;22;20106;-82
2021/12/03 07:47:00;;;;;;;19.77;8.60;;;2.90;99.90;;;;;;6220074;22;20172;-77
2021/12/03 07:49:26;;;;;;;18.10;7.70;;;2.10;99.90;;;;;;6269271;22;20107;-77
2021/12/03 07:51:54;;;;;;;20.35;7.63;;;2.20;99.90;;;;;;6241597;22;20031;-76
2021/12/03 07:54:20;;;;;;;14.07;7.22;;;2.20;99.90;;;;;;6218353;22;20019;-77
2021/12/03 07:56:46;;;;;;;15.73;7.38;;;2.20;99.90;;;;;;6218734;22;20012;-76
2021/12/03 07:59:11;;;;;;;15.55;7.13;;;2.30;99.90;;;;;;6242326;22;20043;-76
2021/12/03 08:01:43;;;;;;;14.07;6.60;;;2.30;99.90;;;;;;6241485;22;20142;-78
2021/12/03 08:04:10;;;;;;;14.57;6.40;;;2.30;99.90;;;;;;6221517;22;20094;-78
2021/12/03 08:06:39;;;;;;;23.33;7.18;;;2.30;99.90;;;;;;6241726;22;20015;-79
2021/12/03 08:09:04;;;;;;;11.43;5.57;;;2.30;99.90;;;;;;6242795;22;20069;-79
2021/12/03 08:11:30;;;;;;;14.32;5.85;;;2.40;99.90;;;;;;6240990;22;20012;-78
2021/12/03 08:13:56;;;;;;;15.02;6.00;;;2.40;99.90;;;;;;6243859;22;20319;-80
2021/12/03 08:16:22;;;;;;;11.30;5.30;;;2.40;99.90;;;;;;6245347;22;20024;-79
2021/12/03 08:18:49;;;;;;;15.82;5.68;;;2.40;99.90;;;;;;6247828;22;20023;-78
2021/12/03 08:21:14;;;;;;;17.20;5.70;;;2.40;99.90;;;;;;6245068;22;20027;-77
2021/12/03 08:23:40;;;;;;;14.88;5.00;;;2.50;99.90;;;;;;6217478;22;20015;-77
2021/12/03 08:26:07;;;;;;;8.98;5.20;;;2.50;99.90;;;;;;6220155;22;20027;-79
2021/12/03 08:28:35;;;;;;;10.48;4.70;;;2.50;99.90;;;;;;6243070;22;20019;-77
2021/12/03 08:31:01;;;;;;;10.82;4.90;;;2.60;99.90;;;;;;6246670;22;20039;-80
2021/12/03 08:33:30;;;;;;;13.68;4.97;;;2.60;99.90;;;;;;6221347;22;20019;-81
2021/12/03 08:35:55;;;;;;;21.25;5.05;;;2.60;99.90;;;;;;6247746;22;20022;-81
2021/12/03 08:38:21;;;;;;;14.32;5.20;;;2.70;99.90;;;;;;6221144;22;20011;-80
2021/12/03 08:40:47;;;;;;;12.80;5.18;;;2.80;99.90;;;;;;6247285;22;20015;-81
2021/12/03 08:43:12;;;;;;;12.60;5.10;;;3.10;99.90;;;;;;6248169;22;20022;-79
2021/12/03 08:45:39;;;;;;;13.65;5.20;;;2.80;99.90;;;;;;6246419;22;20122;-80
2021/12/03 08:48:05;;;;;;;18.23;5.43;;;2.90;99.90;;;;;;6247249;22;20008;-81
2021/12/03 08:50:48;;;;;;;16.90;5.25;;;2.90;99.90;;;;;;6245883;22;20016;-82
2021/12/03 08:56:00;;;;;;;16.23;5.82;;;2.90;99.90;;;;;;6274793;22;20015;-78
2021/12/03 08:58:27;;;;;;;17.98;6.30;;;3.00;99.90;;;;;;6246102;22;20035;-78
2021/12/03 09:01:15;;;;;;;19.02;6.70;;;3.00;99.90;;;;;;6243088;22;20039;-79
2021/12/03 09:03:40;;;;;;;22.38;7.03;;;2.90;99.90;;;;;;6221225;22;20020;-78
2021/12/03 09:06:06;;;;;;;18.92;6.65;;;3.00;99.90;;;;;;6244814;22;20025;-77
2021/12/03 09:08:32;;;;;;;16.73;7.05;;;3.10;99.90;;;;;;6268006;22;20004;-80
2021/12/03 09:10:57;;;;;;;17.88;7.82;;;3.10;99.90;;;;;;6219604;22;20015;-76
2021/12/03 09:13:23;;;;;;;21.02;7.90;;;3.20;99.90;;;;;;6217589;22;20019;-77
2021/12/03 09:15:58;;;;;;;17.58;8.23;;;3.20;99.90;;;;;;6243683;22;20019;-79
2021/12/03 09:18:33;;;;;;;18.33;7.97;;;3.20;99.90;;;;;;6238885;23;20028;-76
2021/12/03 09:21:05;;;;;;;24.90;8.53;;;3.20;99.90;;;;;;6241138;23;20012;-75
2021/12/03 09:28:36;;;;;;;24.63;10.27;;;3.20;99.90;;;;;;6238832;23;20016;-77
2021/12/03 09:31:02;;;;;;;21.90;10.25;;;3.20;99.90;;;;;;6239865;23;20092;-76
2021/12/03 09:33:29;;;;;;;21.90;10.77;;;3.20;99.90;;;;;;6241599;23;20008;-76
2021/12/03 09:36:00;;;;;;;20.00;10.73;;;3.30;99.90;;;;;;6242063;23;20020;-80
2021/12/03 09:38:30;;;;;;;28.88;11.35;;;3.30;99.90;;;;;;6239583;23;20016;-76
2021/12/03 09:40:59;;;;;;;33.17;11.18;;;3.40;99.90;;;;;;6212978;23;20054;-76
2021/12/03 09:43:25;;;;;;;22.85;11.40;;;3.40;99.90;;;;;;6214198;23;20097;-79
2021/12/03 09:46:00;;;;;;;30.15;12.23;;;3.40;99.90;;;;;;6239760;23;20475;-78
2021/12/03 09:51:15;;;;;;;27.25;12.73;;;3.50;99.90;;;;;;6123540;23;20024;-78
2021/12/03 09:56:16;;;;;;;26.23;12.90;;;3.50;99.90;;;;;;6125128;23;20442;-79
2021/12/03 10:04:22;;;;;;;29.77;12.02;;;3.70;99.90;;;;;;6090211;23;20022;-78
2021/12/03 10:15:32;;;;;;;26.55;11.85;;;3.70;99.90;;;;;;6091948;23;20025;-78
2021/12/03 10:18:17;;;;;;;27.95;12.13;;;3.80;99.90;;;;;;6089898;23;20328;-79
2021/12/03 10:20:51;;;;;;;;;;;3.80;99.90;;;;;;6062611;23;20030;-77
2021/12/03 10:43:09;;;;;;;21.35;8.52;;;4.00;99.90;;;;;;6241842;22;20102;-78
2021/12/03 10:50:43;;;;;;;15.93;6.90;;;4.50;99.90;;;;;;6245736;22;20095;-78
2021/12/03 10:56:43;;;;;;;22.00;6.45;;;4.00;99.90;;;;;;6152730;23;20096;-80
2021/12/03 11:05:07;;;;;;;18.73;6.63;;;4.00;99.90;;;;;;6149185;23;20405;-79
2021/12/03 11:13:55;;;;;;;20.70;6.35;;;4.10;99.90;;;;;;6153789;23;20087;-78
2021/12/03 11:19:37;;;;;;;18.90;5.72;;;4.00;99.90;;;;;;6148755;23;20086;-79
2021/12/03 12:45:09;;;;;;;18.67;5.20;;;3.80;99.90;;;;;;6066650;23;20024;-82
2021/12/03 13:28:35;;;;;;;14.95;5.90;;;3.60;99.90;;;;;;6008708;23;20027;-81
2021/12/03 14:20:53;;;;;;;12.20;4.97;;;4.10;99.90;;;;;;6182967;23;20070;-78
2021/12/03 14:53:57;;;;;;;9.50;4.22;;;4.30;99.90;;;;;;6141885;23;20053;-78
2021/12/03 14:56:11;;;;;;;9.35;4.78;;;4.30;99.90;;;;;;6092150;23;20026;-80
2021/12/03 15:01:20;;;;;;;;;;;4.30;99.90;;;;;;6141785;23;20029;-79
2021/12/03 15:06:33;;;;;;;10.55;4.80;;;4.30;99.90;;;;;;6140648;23;20026;-79
2021/12/03 15:12:01;;;;;;;11.05;4.25;;;4.50;99.90;;;;;;6122521;23;20028;-81
2021/12/03 15:22:57;;;;;;;12.13;4.93;;;4.30;99.90;;;;;;6237169;23;20689;-79
2021/12/03 15:25:35;;;;;;;12.45;5.20;;;4.20;99.90;;;;;;6213923;23;20020;-78
2021/12/03 15:30:39;;;;;;;12.55;6.28;;;4.30;99.90;;;;;;6238537;23;20065;-79
2021/12/03 15:38:43;;;;;;;11.57;6.32;;;4.20;99.90;;;;;;6238796;23;20031;-81
2021/12/03 15:55:04;;;;;;;13.45;7.57;;;4.10;99.90;;;;;;6239302;23;20416;-79
2021/12/03 16:05:52;;;;;;;16.15;9.65;;;4.10;99.90;;;;;;6237078;22;20098;-81
2021/12/03 16:08:22;;;;;;;12.48;9.30;;;4.10;99.90;;;;;;6233882;23;20028;-77
2021/12/03 16:27:23;;;;;;;15.15;10.48;;;4.20;99.90;;;;;;6239296;22;20032;-83
2021/12/03 16:51:26;;;;;;;13.90;11.68;;;4.20;99.90;;;;;;6237737;23;20027;-78
2021/12/03 16:53:54;;;;;;;15.25;12.40;;;4.20;99.90;;;;;;6235858;23;20125;-78
2021/12/03 16:56:27;;;;;;;17.05;12.82;;;4.30;99.90;;;;;;6238748;23;20019;-75
2021/12/03 16:58:56;;;;;;;16.05;12.35;;;4.20;99.90;;;;;;6237051;23;20031;-77
2021/12/03 17:04:12;;;;;;;16.83;13.43;;;4.20;99.90;;;;;;6236430;23;20123;-74
2021/12/03 17:44:36;;;;;;;15.70;13.85;;;4.30;99.90;;;;;;6238907;23;20019;-74
2021/12/03 17:55:15;;;;;;;16.25;13.82;;;4.30;99.90;;;;;;6239681;23;20020;-76
2021/12/03 18:00:42;;;;;;;17.08;14.93;;;4.40;99.90;;;;;;6240550;23;20338;-76
2021/12/03 18:03:19;;;;;;;22.65;15.77;;;4.30;99.90;;;;;;6237027;23;20020;-79
2021/12/03 18:19:15;;;;;;;23.08;16.17;;;4.30;99.90;;;;;;6235796;23;20028;-78
2021/12/03 18:46:43;;;;;;;22.97;19.17;;;4.50;99.90;;;;;;6236937;23;20099;-76
2021/12/03 18:54:59;;;;;;;23.92;19.02;;;4.40;99.90;;;;;;6120394;23;20040;-76
2021/12/03 18:57:31;;;;;;;28.35;20.98;;;4.50;99.90;;;;;;6121394;23;20445;-76
2021/12/03 19:00:07;;;;;;;26.55;20.85;;;4.60;99.90;;;;;;6120880;23;20022;-77
2021/12/03 19:02:33;;;;;;;28.50;21.80;;;4.50;99.90;;;;;;6142998;23;20022;-79
2021/12/03 19:05:04;;;;;;;28.40;21.75;;;4.50;99.90;;;;;;6140408;23;20017;-77
2021/12/03 19:07:41;;;;;;;33.28;22.23;;;4.50;99.90;;;;;;6093012;23;20021;-77
2021/12/03 19:10:13;;;;;;;31.17;23.52;;;4.50;99.90;;;;;;6122700;23;20025;-78
2021/12/03 19:12:42;;;;;;;29.52;21.52;;;4.50;99.90;;;;;;6144936;23;20021;-78
2021/12/03 19:15:10;;;;;;;32.30;23.45;;;4.50;99.90;;;;;;6098601;23;20017;-78
2021/12/03 19:17:38;;;;;;;29.63;22.52;;;4.50;99.90;;;;;;6122319;23;20120;-78
2021/12/03 19:20:14;;;;;;;32.72;24.40;;;4.50;99.90;;;;;;6099681;23;20036;-77
2021/12/03 19:22:39;;;;;;;33.20;24.55;;;4.50;99.90;;;;;;6121266;23;20013;-76
2021/12/03 19:25:05;;;;;;;31.23;23.25;;;4.50;99.90;;;;;;6099105;23;20052;-77
2021/12/03 19:27:31;;;;;;;32.45;24.23;;;4.50;99.90;;;;;;6121794;23;20401;-78
2021/12/03 19:29:58;;;;;;;35.22;25.65;;;4.50;99.90;;;;;;6212071;22;20012;-76
2021/12/03 19:32:27;;;;;;;35.25;24.58;;;4.50;99.90;;;;;;6240204;22;20057;-77
2021/12/03 19:34:54;;;;;;;35.25;25.38;;;4.50;99.90;;;;;;6238022;22;20019;-78
2021/12/03 19:37:21;;;;;;;36.50;26.23;;;4.50;99.90;;;;;;6212592;22;20089;-77
2021/12/03 19:39:47;;;;;;;36.63;25.35;;;4.50;99.90;;;;;;6239460;22;20099;-79
2021/12/03 19:42:19;;;;;;;35.85;24.88;;;4.50;99.90;;;;;;6238562;22;20062;-78
2021/12/03 19:44:55;;;;;;;41.53;28.38;;;4.50;99.90;;;;;;6238738;22;20752;-79
2021/12/03 19:47:31;;;;;;;40.17;28.13;;;4.50;99.90;;;;;;6239087;22;20034;-78
2021/12/03 19:52:58;;;;;;;46.17;30.27;;;4.50;99.90;;;;;;6243825;22;20053;-75
2021/12/03 19:55:24;;;;;;;45.35;29.48;;;4.50;99.90;;;;;;6243227;22;20015;-78
2021/12/03 19:57:49;;;;;;;47.20;31.52;;;4.50;99.90;;;;;;6240992;22;20368;-78
2021/12/03 20:00:15;;;;;;;46.65;30.48;;;4.60;99.90;;;;;;6242637;22;20015;-78
2021/12/03 20:02:41;;;;;;;46.03;30.15;;;4.60;99.90;;;;;;6241373;22;20019;-77
2021/12/03 20:05:12;;;;;;;46.55;31.63;;;4.50;99.90;;;;;;6221460;22;20027;-78
2021/12/03 20:08:27;;;;;;;;;;;;;;;;;;;;;
2021/12/03 20:11:27;;;;;;;50.67;32.95;;;4.50;99.90;;;;;;6266984;22;20130;-77
2021/12/03 20:14:25;;;;;;;49.30;32.33;;;4.50;99.90;;;;;;6265870;22;20011;-77
2021/12/03 20:20:08;;;;;;;53.53;34.05;;;4.50;99.90;;;;;;6266496;22;20031;-77
2021/12/03 20:28:07;;;;;;;48.95;32.75;;;4.60;99.90;;;;;;6266480;22;20886;-75
2021/12/03 20:30:37;;;;;;;53.15;34.15;;;5.00;99.90;;;;;;6241071;22;20015;-75
2021/12/03 20:38:30;;;;;;;52.70;34.33;;;4.60;99.90;;;;;;6265402;22;20053;-76
2021/12/03 20:41:00;;;;;;;51.90;32.70;;;4.70;99.90;;;;;;6266586;22;20022;-76
2021/12/03 20:46:17;;;;;;;54.58;33.13;;;4.60;99.90;;;;;;6269011;22;20070;-77
2021/12/03 21:10:14;;;;;;;49.53;31.80;;;4.70;99.90;;;;;;6271057;22;20019;-76